sensor_id;sensor_type;location;lat;lon;timestamp;P1;durP1;ratioP1;P2;durP2;ratioP2
46675;SDS011;32412;51.478;5.694;2023-09-18T00:01:52;16.52;;;10.50;;
46675;SDS011;32412;51.478;5.694;2023-09-18T00:04:38;16.20;;;10.77;;
46675;SDS011;32412;51.478;5.694;2023-09-18T00:07:06;15.85;;;10.52;;
46675;SDS011;32412;51.478;5.694;2023-09-18T00:09:31;13.32;;;9.57;;
46675;SDS011;32412;51.478;5.694;2023-09-18T00:11:59;14.82;;;9.45;;
46675;SDS011;32412;51.478;5.694;2023-09-18T00:14:25;13.05;;;8.80;;
46675;SDS011;32412;51.478;5.694;2023-09-18T00:16:51;16.58;;;9.30;;
46675;SDS011;32412;51.478;5.694;2023-09-18T00:19:17;13.68;;;9.25;;
46675;SDS011;32412;51.478;5.694;2023-09-18T00:21:46;17.58;;;9.15;;
46675;SDS011;32412;51.478;5.694;2023-09-18T00:24:12;16.10;;;8.52;;
46675;SDS011;32412;51.478;5.694;2023-09-18T00:26:37;14.68;;;8.95;;
46675;SDS011;32412;51.478;5.694;2023-09-18T00:29:03;12.05;;;8.48;;
46675;SDS011;32412;51.478;5.694;2023-09-18T00:31:31;12.60;;;7.88;;
46675;SDS011;32412;51.478;5.694;2023-09-18T00:33:57;11.50;;;8.10;;
46675;SDS011;32412;51.478;5.694;2023-09-18T00:36:26;11.20;;;7.25;;
46675;SDS011;32412;51.478;5.694;2023-09-18T00:38:51;10.05;;;7.07;;
46675;SDS011;32412;51.478;5.694;2023-09-18T00:41:17;12.48;;;7.07;;
46675;SDS011;32412;51.478;5.694;2023-09-18T00:43:43;8.70;;;6.45;;
46675;SDS011;32412;51.478;5.694;2023-09-18T00:46:09;10.90;;;6.70;;
46675;SDS011;32412;51.478;5.694;2023-09-18T00:48:34;9.98;;;6.78;;
46675;SDS011;32412;51.478;5.694;2023-09-18T00:51:00;8.48;;;5.65;;
46675;SDS011;32412;51.478;5.694;2023-09-18T00:53:26;7.68;;;5.68;;
46675;SDS011;32412;51.478;5.694;2023-09-18T00:55:53;8.02;;;5.90;;
46675;SDS011;32412;51.478;5.694;2023-09-18T00:58:21;9.00;;;5.70;;
46675;SDS011;32412;51.478;5.694;2023-09-18T01:00:50;9.30;;;5.65;;
46675;SDS011;32412;51.478;5.694;2023-09-18T01:03:16;8.27;;;6.13;;
46675;SDS011;32412;51.478;5.694;2023-09-18T01:05:44;7.82;;;5.50;;
46675;SDS011;32412;51.478;5.694;2023-09-18T01:08:10;6.60;;;4.72;;
46675;SDS011;32412;51.478;5.694;2023-09-18T01:10:39;8.05;;;4.70;;
46675;SDS011;32412;51.478;5.694;2023-09-18T01:13:14;6.82;;;4.88;;
46675;SDS011;32412;51.478;5.694;2023-09-18T01:16:17;10.88;;;5.18;;
46675;SDS011;32412;51.478;5.694;2023-09-18T01:19:02;8.15;;;5.50;;
46675;SDS011;32412;51.478;5.694;2023-09-18T01:21:33;7.10;;;5.05;;
46675;SDS011;32412;51.478;5.694;2023-09-18T01:23:59;8.93;;;4.53;;
46675;SDS011;32412;51.478;5.694;2023-09-18T01:26:25;7.43;;;4.95;;
46675;SDS011;32412;51.478;5.694;2023-09-18T01:28:50;7.65;;;4.75;;
46675;SDS011;32412;51.478;5.694;2023-09-18T01:31:16;6.07;;;4.50;;
46675;SDS011;32412;51.478;5.694;2023-09-18T01:33:42;5.60;;;4.65;;
46675;SDS011;32412;51.478;5.694;2023-09-18T01:36:12;5.05;;;4.35;;
46675;SDS011;32412;51.478;5.694;2023-09-18T01:38:39;7.38;;;4.30;;
46675;SDS011;32412;51.478;5.694;2023-09-18T01:41:06;5.50;;;4.25;;
46675;SDS011;32412;51.478;5.694;2023-09-18T01:43:34;5.38;;;3.90;;
46675;SDS011;32412;51.478;5.694;2023-09-18T01:46:18;7.25;;;4.43;;
46675;SDS011;32412;51.478;5.694;2023-09-18T01:48:47;5.88;;;3.63;;
46675;SDS011;32412;51.478;5.694;2023-09-18T01:51:14;5.35;;;3.88;;
46675;SDS011;32412;51.478;5.694;2023-09-18T01:53:43;6.80;;;3.75;;
46675;SDS011;32412;51.478;5.694;2023-09-18T01:56:14;5.88;;;4.00;;
46675;SDS011;32412;51.478;5.694;2023-09-18T01:58:40;4.75;;;3.63;;
46675;SDS011;32412;51.478;5.694;2023-09-18T02:01:06;4.15;;;3.70;;
46675;SDS011;32412;51.478;5.694;2023-09-18T02:03:32;5.53;;;3.80;;
46675;SDS011;32412;51.478;5.694;2023-09-18T02:05:58;8.48;;;4.43;;
46675;SDS011;32412;51.478;5.694;2023-09-18T02:08:32;5.70;;;3.58;;
46675;SDS011;32412;51.478;5.694;2023-09-18T02:11:03;5.82;;;3.63;;
46675;SDS011;32412;51.478;5.694;2023-09-18T02:13:32;5.70;;;4.55;;
46675;SDS011;32412;51.478;5.694;2023-09-18T02:15:57;6.50;;;3.95;;
46675;SDS011;32412;51.478;5.694;2023-09-18T02:18:23;4.53;;;3.25;;
46675;SDS011;32412;51.478;5.694;2023-09-18T02:20:49;6.72;;;3.13;;
46675;SDS011;32412;51.478;5.694;2023-09-18T02:23:15;3.88;;;3.40;;
46675;SDS011;32412;51.478;5.694;2023-09-18T02:25:41;7.32;;;3.63;;
46675;SDS011;32412;51.478;5.694;2023-09-18T02:28:07;8.07;;;3.70;;
46675;SDS011;32412;51.478;5.694;2023-09-18T02:30:33;8.05;;;4.05;;
46675;SDS011;32412;51.478;5.694;2023-09-18T02:32:58;4.32;;;3.53;;
46675;SDS011;32412;51.478;5.694;2023-09-18T02:35:27;6.68;;;4.03;;
46675;SDS011;32412;51.478;5.694;2023-09-18T02:37:55;4.28;;;3.47;;
46675;SDS011;32412;51.478;5.694;2023-09-18T02:40:24;5.47;;;3.75;;
46675;SDS011;32412;51.478;5.694;2023-09-18T02:42:56;5.63;;;3.50;;
46675;SDS011;32412;51.478;5.694;2023-09-18T02:45:22;6.68;;;3.33;;
46675;SDS011;32412;51.478;5.694;2023-09-18T02:47:48;5.07;;;3.95;;
46675;SDS011;32412;51.478;5.694;2023-09-18T02:50:16;6.22;;;3.70;;
46675;SDS011;32412;51.478;5.694;2023-09-18T02:52:42;6.45;;;3.20;;
46675;SDS011;32412;51.478;5.694;2023-09-18T02:55:08;6.68;;;3.67;;
46675;SDS011;32412;51.478;5.694;2023-09-18T02:57:35;5.15;;;3.72;;
46675;SDS011;32412;51.478;5.694;2023-09-18T03:00:02;4.45;;;3.28;;
46675;SDS011;32412;51.478;5.694;2023-09-18T03:02:28;5.30;;;3.47;;
46675;SDS011;32412;51.478;5.694;2023-09-18T03:04:57;6.60;;;3.47;;
46675;SDS011;32412;51.478;5.694;2023-09-18T03:07:23;6.50;;;3.35;;
46675;SDS011;32412;51.478;5.694;2023-09-18T03:09:54;6.78;;;3.40;;
46675;SDS011;32412;51.478;5.694;2023-09-18T03:12:20;4.57;;;3.45;;
46675;SDS011;32412;51.478;5.694;2023-09-18T03:14:47;5.97;;;3.25;;
46675;SDS011;32412;51.478;5.694;2023-09-18T03:17:16;4.63;;;3.50;;
46675;SDS011;32412;51.478;5.694;2023-09-18T03:19:47;5.00;;;3.25;;
46675;SDS011;32412;51.478;5.694;2023-09-18T03:22:18;5.13;;;3.30;;
46675;SDS011;32412;51.478;5.694;2023-09-18T03:24:56;4.88;;;2.90;;
46675;SDS011;32412;51.478;5.694;2023-09-18T03:27:38;7.95;;;3.47;;
46675;SDS011;32412;51.478;5.694;2023-09-18T03:30:19;6.93;;;3.38;;
46675;SDS011;32412;51.478;5.694;2023-09-18T03:32:59;5.85;;;3.05;;
46675;SDS011;32412;51.478;5.694;2023-09-18T03:35:28;5.38;;;2.50;;
46675;SDS011;32412;51.478;5.694;2023-09-18T03:38:19;5.57;;;3.13;;
46675;SDS011;32412;51.478;5.694;2023-09-18T03:41:03;5.55;;;2.97;;
46675;SDS011;32412;51.478;5.694;2023-09-18T03:43:38;3.17;;;2.78;;
46675;SDS011;32412;51.478;5.694;2023-09-18T03:46:24;5.20;;;3.10;;
46675;SDS011;32412;51.478;5.694;2023-09-18T03:48:49;4.05;;;3.00;;
46675;SDS011;32412;51.478;5.694;2023-09-18T03:51:15;3.03;;;2.65;;
46675;SDS011;32412;51.478;5.694;2023-09-18T03:53:43;4.32;;;2.78;;
46675;SDS011;32412;51.478;5.694;2023-09-18T03:56:09;8.48;;;3.35;;
46675;SDS011;32412;51.478;5.694;2023-09-18T03:58:35;4.70;;;2.30;;
46675;SDS011;32412;51.478;5.694;2023-09-18T04:01:04;7.30;;;2.95;;
46675;SDS011;32412;51.478;5.694;2023-09-18T04:03:33;6.60;;;2.97;;
46675;SDS011;32412;51.478;5.694;2023-09-18T04:09:26;6.15;;;2.42;;
46675;SDS011;32412;51.478;5.694;2023-09-18T04:11:54;7.68;;;2.75;;
46675;SDS011;32412;51.478;5.694;2023-09-18T04:14:20;7.20;;;2.60;;
46675;SDS011;32412;51.478;5.694;2023-09-18T04:16:46;3.45;;;2.58;;
46675;SDS011;32412;51.478;5.694;2023-09-18T04:19:15;4.95;;;2.70;;
46675;SDS011;32412;51.478;5.694;2023-09-18T04:21:51;8.20;;;3.05;;
46675;SDS011;32412;51.478;5.694;2023-09-18T04:24:19;3.13;;;2.70;;
46675;SDS011;32412;51.478;5.694;2023-09-18T04:26:50;3.10;;;2.70;;
46675;SDS011;32412;51.478;5.694;2023-09-18T04:29:19;3.15;;;2.13;;
46675;SDS011;32412;51.478;5.694;2023-09-18T04:31:47;2.53;;;2.33;;
46675;SDS011;32412;51.478;5.694;2023-09-18T04:34:16;2.63;;;2.42;;
46675;SDS011;32412;51.478;5.694;2023-09-18T04:36:46;3.13;;;2.47;;
46675;SDS011;32412;51.478;5.694;2023-09-18T04:39:18;5.35;;;3.15;;
46675;SDS011;32412;51.478;5.694;2023-09-18T04:41:47;3.25;;;2.30;;
46675;SDS011;32412;51.478;5.694;2023-09-18T04:44:16;2.30;;;2.10;;
46675;SDS011;32412;51.478;5.694;2023-09-18T04:46:45;3.15;;;2.22;;
46675;SDS011;32412;51.478;5.694;2023-09-18T04:49:13;5.55;;;2.28;;
46675;SDS011;32412;51.478;5.694;2023-09-18T04:51:54;2.92;;;2.45;;
46675;SDS011;32412;51.478;5.694;2023-09-18T04:54:25;2.67;;;2.05;;
46675;SDS011;32412;51.478;5.694;2023-09-18T04:56:51;2.25;;;2.05;;
46675;SDS011;32412;51.478;5.694;2023-09-18T04:59:22;3.10;;;2.00;;
46675;SDS011;32412;51.478;5.694;2023-09-18T05:01:48;2.00;;;1.80;;
46675;SDS011;32412;51.478;5.694;2023-09-18T05:04:14;3.05;;;1.40;;
46675;SDS011;32412;51.478;5.694;2023-09-18T05:06:42;4.05;;;1.75;;
46675;SDS011;32412;51.478;5.694;2023-09-18T05:11:52;2.05;;;1.40;;
46675;SDS011;32412;51.478;5.694;2023-09-18T05:14:27;2.92;;;1.40;;
46675;SDS011;32412;51.478;5.694;2023-09-18T05:16:53;1.98;;;1.52;;
46675;SDS011;32412;51.478;5.694;2023-09-18T05:19:21;3.55;;;1.38;;
46675;SDS011;32412;51.478;5.694;2023-09-18T05:21:47;4.90;;;1.50;;
46675;SDS011;32412;51.478;5.694;2023-09-18T05:24:13;1.98;;;1.45;;
46675;SDS011;32412;51.478;5.694;2023-09-18T05:26:39;2.72;;;1.33;;
46675;SDS011;32412;51.478;5.694;2023-09-18T05:29:05;2.35;;;1.35;;
46675;SDS011;32412;51.478;5.694;2023-09-18T05:31:30;2.83;;;1.35;;
46675;SDS011;32412;51.478;5.694;2023-09-18T05:34:02;1.52;;;1.40;;
46675;SDS011;32412;51.478;5.694;2023-09-18T05:36:40;3.08;;;1.38;;
46675;SDS011;32412;51.478;5.694;2023-09-18T05:39:15;2.53;;;1.40;;
46675;SDS011;32412;51.478;5.694;2023-09-18T05:41:53;6.82;;;1.30;;
46675;SDS011;32412;51.478;5.694;2023-09-18T05:44:21;1.70;;;1.38;;
46675;SDS011;32412;51.478;5.694;2023-09-18T05:47:28;1.52;;;1.27;;
46675;SDS011;32412;51.478;5.694;2023-09-18T05:56:47;1.50;;;1.30;;
46675;SDS011;32412;51.478;5.694;2023-09-18T05:59:13;1.83;;;1.15;;
46675;SDS011;32412;51.478;5.694;2023-09-18T06:01:47;2.17;;;0.90;;
46675;SDS011;32412;51.478;5.694;2023-09-18T06:04:14;2.38;;;1.52;;
46675;SDS011;32412;51.478;5.694;2023-09-18T06:06:42;1.30;;;0.93;;
46675;SDS011;32412;51.478;5.694;2023-09-18T06:09:13;1.58;;;1.48;;
46675;SDS011;32412;51.478;5.694;2023-09-18T06:11:39;1.35;;;1.00;;
46675;SDS011;32412;51.478;5.694;2023-09-18T06:14:06;0.80;;;0.80;;
46675;SDS011;32412;51.478;5.694;2023-09-18T06:16:32;1.20;;;1.00;;
46675;SDS011;32412;51.478;5.694;2023-09-18T06:19:36;2.78;;;1.23;;
46675;SDS011;32412;51.478;5.694;2023-09-18T06:22:04;2.38;;;0.88;;
46675;SDS011;32412;51.478;5.694;2023-09-18T06:24:30;2.05;;;1.08;;
46675;SDS011;32412;51.478;5.694;2023-09-18T06:26:55;0.70;;;0.70;;
46675;SDS011;32412;51.478;5.694;2023-09-18T06:29:21;0.82;;;0.82;;
46675;SDS011;32412;51.478;5.694;2023-09-18T06:31:47;2.25;;;0.93;;
46675;SDS011;32412;51.478;5.694;2023-09-18T06:34:12;1.45;;;1.23;;
46675;SDS011;32412;51.478;5.694;2023-09-18T06:36:38;2.08;;;0.80;;
46675;SDS011;32412;51.478;5.694;2023-09-18T06:39:04;1.15;;;1.05;;
46675;SDS011;32412;51.478;5.694;2023-09-18T06:41:30;0.90;;;0.80;;
46675;SDS011;32412;51.478;5.694;2023-09-18T06:43:55;5.68;;;0.90;;
46675;SDS011;32412;51.478;5.694;2023-09-18T06:46:22;2.28;;;0.77;;
46675;SDS011;32412;51.478;5.694;2023-09-18T06:48:47;2.35;;;1.08;;
46675;SDS011;32412;51.478;5.694;2023-09-18T06:51:16;1.23;;;0.82;;
46675;SDS011;32412;51.478;5.694;2023-09-18T06:53:42;1.50;;;0.77;;
46675;SDS011;32412;51.478;5.694;2023-09-18T06:56:08;0.50;;;0.50;;
46675;SDS011;32412;51.478;5.694;2023-09-18T06:58:34;1.30;;;1.02;;
46675;SDS011;32412;51.478;5.694;2023-09-18T07:01:00;0.88;;;0.63;;
46675;SDS011;32412;51.478;5.694;2023-09-18T07:03:29;1.05;;;0.88;;
46675;SDS011;32412;51.478;5.694;2023-09-18T07:05:57;0.77;;;0.70;;
46675;SDS011;32412;51.478;5.694;2023-09-18T07:08:23;0.60;;;0.60;;
46675;SDS011;32412;51.478;5.694;2023-09-18T07:10:49;0.90;;;0.57;;
46675;SDS011;32412;51.478;5.694;2023-09-18T07:13:15;1.05;;;0.80;;
46675;SDS011;32412;51.478;5.694;2023-09-18T07:15:41;0.60;;;0.55;;
46675;SDS011;32412;51.478;5.694;2023-09-18T07:18:10;3.20;;;1.15;;
46675;SDS011;32412;51.478;5.694;2023-09-18T07:20:45;1.60;;;0.98;;
46675;SDS011;32412;51.478;5.694;2023-09-18T07:23:11;1.10;;;0.98;;
46675;SDS011;32412;51.478;5.694;2023-09-18T07:25:38;0.77;;;0.70;;
46675;SDS011;32412;51.478;5.694;2023-09-18T07:28:05;1.45;;;1.02;;
46675;SDS011;32412;51.478;5.694;2023-09-18T07:30:31;0.55;;;0.55;;
46675;SDS011;32412;51.478;5.694;2023-09-18T07:32:57;0.50;;;0.50;;
46675;SDS011;32412;51.478;5.694;2023-09-18T07:35:30;2.75;;;1.17;;
46675;SDS011;32412;51.478;5.694;2023-09-18T07:37:59;1.02;;;0.80;;
46675;SDS011;32412;51.478;5.694;2023-09-18T07:40:31;0.75;;;0.60;;
46675;SDS011;32412;51.478;5.694;2023-09-18T07:42:57;2.95;;;0.70;;
46675;SDS011;32412;51.478;5.694;2023-09-18T07:45:29;0.98;;;0.70;;
46675;SDS011;32412;51.478;5.694;2023-09-18T07:48:04;3.50;;;0.82;;
46675;SDS011;32412;51.478;5.694;2023-09-18T07:50:31;2.35;;;0.98;;
46675;SDS011;32412;51.478;5.694;2023-09-18T08:03:04;0.60;;;0.60;;
46675;SDS011;32412;51.478;5.694;2023-09-18T08:05:37;0.95;;;0.55;;
46675;SDS011;32412;51.478;5.694;2023-09-18T08:08:12;0.98;;;0.85;;
46675;SDS011;32412;51.478;5.694;2023-09-18T08:10:46;3.58;;;1.10;;
46675;SDS011;32412;51.478;5.694;2023-09-18T08:13:21;0.85;;;0.63;;
46675;SDS011;32412;51.478;5.694;2023-09-18T08:15:52;2.60;;;0.80;;
46675;SDS011;32412;51.478;5.694;2023-09-18T08:18:19;1.00;;;0.90;;
46675;SDS011;32412;51.478;5.694;2023-09-18T08:20:44;0.75;;;0.57;;
46675;SDS011;32412;51.478;5.694;2023-09-18T08:23:10;1.15;;;0.63;;
46675;SDS011;32412;51.478;5.694;2023-09-18T08:25:36;0.80;;;0.80;;
46675;SDS011;32412;51.478;5.694;2023-09-18T08:28:05;0.98;;;0.63;;
46675;SDS011;32412;51.478;5.694;2023-09-18T08:30:31;0.60;;;0.60;;
46675;SDS011;32412;51.478;5.694;2023-09-18T08:32:57;1.63;;;0.82;;
46675;SDS011;32412;51.478;5.694;2023-09-18T08:35:23;1.17;;;0.70;;
46675;SDS011;32412;51.478;5.694;2023-09-18T08:37:53;1.58;;;0.70;;
46675;SDS011;32412;51.478;5.694;2023-09-18T08:40:18;1.83;;;0.80;;
46675;SDS011;32412;51.478;5.694;2023-09-18T08:42:45;0.98;;;0.85;;
46675;SDS011;32412;51.478;5.694;2023-09-18T08:45:22;0.60;;;0.60;;
46675;SDS011;32412;51.478;5.694;2023-09-18T08:48:05;1.48;;;0.70;;
46675;SDS011;32412;51.478;5.694;2023-09-18T08:53:18;0.93;;;0.80;;
46675;SDS011;32412;51.478;5.694;2023-09-18T08:55:43;1.58;;;1.20;;
46675;SDS011;32412;51.478;5.694;2023-09-18T08:58:09;1.63;;;0.75;;
46675;SDS011;32412;51.478;5.694;2023-09-18T09:00:38;1.17;;;0.68;;
46675;SDS011;32412;51.478;5.694;2023-09-18T09:03:04;1.00;;;0.70;;
46675;SDS011;32412;51.478;5.694;2023-09-18T09:05:30;1.48;;;0.65;;
46675;SDS011;32412;51.478;5.694;2023-09-18T09:07:56;1.48;;;1.08;;
46675;SDS011;32412;51.478;5.694;2023-09-18T09:10:22;0.90;;;0.75;;
46675;SDS011;32412;51.478;5.694;2023-09-18T09:15:21;0.80;;;0.80;;
46675;SDS011;32412;51.478;5.694;2023-09-18T09:17:48;1.27;;;0.93;;
46675;SDS011;32412;51.478;5.694;2023-09-18T09:20:14;2.00;;;0.90;;
46675;SDS011;32412;51.478;5.694;2023-09-18T09:22:41;1.23;;;0.80;;
46675;SDS011;32412;51.478;5.694;2023-09-18T09:25:21;3.10;;;1.10;;
46675;SDS011;32412;51.478;5.694;2023-09-18T09:27:47;1.02;;;1.02;;
46675;SDS011;32412;51.478;5.694;2023-09-18T09:30:23;0.70;;;0.70;;
46675;SDS011;32412;51.478;5.694;2023-09-18T09:32:50;1.98;;;1.00;;
46675;SDS011;32412;51.478;5.694;2023-09-18T09:37:56;2.17;;;1.40;;
46675;SDS011;32412;51.478;5.694;2023-09-18T09:40:24;3.67;;;1.10;;
46675;SDS011;32412;51.478;5.694;2023-09-18T09:42:54;0.70;;;0.70;;
46675;SDS011;32412;51.478;5.694;2023-09-18T09:45:32;4.20;;;1.00;;
46675;SDS011;32412;51.478;5.694;2023-09-18T09:48:00;1.20;;;1.00;;
46675;SDS011;32412;51.478;5.694;2023-09-18T09:50:34;2.03;;;1.08;;
46675;SDS011;32412;51.478;5.694;2023-09-18T09:53:13;0.98;;;0.98;;
46675;SDS011;32412;51.478;5.694;2023-09-18T09:55:39;1.63;;;1.23;;
46675;SDS011;32412;51.478;5.694;2023-09-18T09:58:06;1.33;;;0.82;;
46675;SDS011;32412;51.478;5.694;2023-09-18T10:00:35;0.75;;;0.75;;
46675;SDS011;32412;51.478;5.694;2023-09-18T10:03:16;0.93;;;0.80;;
46675;SDS011;32412;51.478;5.694;2023-09-18T10:05:45;3.42;;;1.00;;
46675;SDS011;32412;51.478;5.694;2023-09-18T10:08:21;1.05;;;0.95;;
46675;SDS011;32412;51.478;5.694;2023-09-18T10:10:49;2.38;;;1.10;;
46675;SDS011;32412;51.478;5.694;2023-09-18T10:13:17;1.75;;;1.08;;
46675;SDS011;32412;51.478;5.694;2023-09-18T10:16:18;1.23;;;1.13;;
46675;SDS011;32412;51.478;5.694;2023-09-18T10:24:22;0.80;;;0.70;;
46675;SDS011;32412;51.478;5.694;2023-09-18T10:26:57;1.45;;;1.20;;
46675;SDS011;32412;51.478;5.694;2023-09-18T10:29:27;2.38;;;1.00;;
46675;SDS011;32412;51.478;5.694;2023-09-18T10:31:55;1.05;;;1.00;;
46675;SDS011;32412;51.478;5.694;2023-09-18T10:34:22;3.08;;;1.27;;
46675;SDS011;32412;51.478;5.694;2023-09-18T10:36:50;3.25;;;1.13;;
46675;SDS011;32412;51.478;5.694;2023-09-18T10:39:17;2.58;;;1.00;;
46675;SDS011;32412;51.478;5.694;2023-09-18T10:41:51;2.35;;;1.05;;
46675;SDS011;32412;51.478;5.694;2023-09-18T10:44:26;1.20;;;0.90;;
46675;SDS011;32412;51.478;5.694;2023-09-18T10:46:56;3.15;;;1.50;;
46675;SDS011;32412;51.478;5.694;2023-09-18T10:49:22;1.08;;;0.95;;
46675;SDS011;32412;51.478;5.694;2023-09-18T10:51:48;3.30;;;1.15;;
46675;SDS011;32412;51.478;5.694;2023-09-18T10:54:22;1.02;;;0.93;;
46675;SDS011;32412;51.478;5.694;2023-09-18T10:56:49;0.88;;;0.85;;
46675;SDS011;32412;51.478;5.694;2023-09-18T10:59:15;2.05;;;1.20;;
46675;SDS011;32412;51.478;5.694;2023-09-18T11:01:42;2.10;;;1.35;;
46675;SDS011;32412;51.478;5.694;2023-09-18T11:04:08;3.60;;;1.00;;
46675;SDS011;32412;51.478;5.694;2023-09-18T11:09:22;1.55;;;1.20;;
46675;SDS011;32412;51.478;5.694;2023-09-18T11:12:02;0.95;;;0.90;;
46675;SDS011;32412;51.478;5.694;2023-09-18T11:20:17;1.20;;;1.10;;
46675;SDS011;32412;51.478;5.694;2023-09-18T11:28:08;1.00;;;1.00;;
46675;SDS011;32412;51.478;5.694;2023-09-18T11:30:52;2.00;;;1.58;;
46675;SDS011;32412;51.478;5.694;2023-09-18T11:33:39;1.30;;;1.00;;
46675;SDS011;32412;51.478;5.694;2023-09-18T11:36:08;3.63;;;1.73;;
46675;SDS011;32412;51.478;5.694;2023-09-18T11:38:55;1.45;;;1.35;;
46675;SDS011;32412;51.478;5.694;2023-09-18T11:41:26;1.27;;;1.13;;
46675;SDS011;32412;51.478;5.694;2023-09-18T11:46:48;4.47;;;1.73;;
46675;SDS011;32412;51.478;5.694;2023-09-18T11:49:20;2.13;;;1.05;;
46675;SDS011;32412;51.478;5.694;2023-09-18T11:51:47;2.60;;;1.33;;
46675;SDS011;32412;51.478;5.694;2023-09-18T12:04:04;4.57;;;1.00;;
46675;SDS011;32412;51.478;5.694;2023-09-18T12:13:17;1.88;;;1.20;;
46675;SDS011;32412;51.478;5.694;2023-09-18T12:15:43;1.25;;;1.15;;
46675;SDS011;32412;51.478;5.694;2023-09-18T12:18:09;2.53;;;1.15;;
46675;SDS011;32412;51.478;5.694;2023-09-18T12:21:15;2.17;;;1.30;;
46675;SDS011;32412;51.478;5.694;2023-09-18T12:23:46;3.17;;;1.60;;
46675;SDS011;32412;51.478;5.694;2023-09-18T12:26:12;1.45;;;1.13;;
46675;SDS011;32412;51.478;5.694;2023-09-18T12:28:41;1.73;;;1.30;;
46675;SDS011;32412;51.478;5.694;2023-09-18T12:31:12;1.70;;;0.90;;
46675;SDS011;32412;51.478;5.694;2023-09-18T12:33:39;4.28;;;1.77;;
46675;SDS011;32412;51.478;5.694;2023-09-18T12:36:06;1.20;;;1.10;;
46675;SDS011;32412;51.478;5.694;2023-09-18T12:38:33;0.82;;;0.80;;
46675;SDS011;32412;51.478;5.694;2023-09-18T12:41:19;1.70;;;1.27;;
46675;SDS011;32412;51.478;5.694;2023-09-18T12:43:45;1.55;;;1.00;;
46675;SDS011;32412;51.478;5.694;2023-09-18T12:46:11;2.33;;;1.20;;
46675;SDS011;32412;51.478;5.694;2023-09-18T12:48:38;1.02;;;1.02;;
46675;SDS011;32412;51.478;5.694;2023-09-18T12:51:10;1.77;;;1.02;;
46675;SDS011;32412;51.478;5.694;2023-09-18T12:53:36;1.05;;;0.85;;
46675;SDS011;32412;51.478;5.694;2023-09-18T12:56:12;0.90;;;0.90;;
46675;SDS011;32412;51.478;5.694;2023-09-18T12:58:39;1.50;;;0.98;;
46675;SDS011;32412;51.478;5.694;2023-09-18T13:01:09;2.13;;;1.13;;
46675;SDS011;32412;51.478;5.694;2023-09-18T13:06:15;1.48;;;1.10;;
46675;SDS011;32412;51.478;5.694;2023-09-18T13:08:45;1.67;;;1.00;;
46675;SDS011;32412;51.478;5.694;2023-09-18T13:11:11;2.38;;;1.50;;
46675;SDS011;32412;51.478;5.694;2023-09-18T13:13:39;1.70;;;1.10;;
46675;SDS011;32412;51.478;5.694;2023-09-18T13:16:06;5.93;;;1.15;;
46675;SDS011;32412;51.478;5.694;2023-09-18T13:18:36;1.10;;;1.00;;
46675;SDS011;32412;51.478;5.694;2023-09-18T13:21:14;1.00;;;1.00;;
46675;SDS011;32412;51.478;5.694;2023-09-18T13:23:39;1.63;;;1.05;;
46675;SDS011;32412;51.478;5.694;2023-09-18T13:26:06;3.25;;;1.10;;
46675;SDS011;32412;51.478;5.694;2023-09-18T13:28:33;1.20;;;1.17;;
46675;SDS011;32412;51.478;5.694;2023-09-18T13:31:01;1.10;;;1.00;;
46675;SDS011;32412;51.478;5.694;2023-09-18T13:33:30;1.25;;;0.90;;
46675;SDS011;32412;51.478;5.694;2023-09-18T13:35:57;2.90;;;1.33;;
46675;SDS011;32412;51.478;5.694;2023-09-18T13:38:24;2.33;;;1.20;;
46675;SDS011;32412;51.478;5.694;2023-09-18T13:40:51;1.48;;;1.00;;
46675;SDS011;32412;51.478;5.694;2023-09-18T13:43:19;3.83;;;1.13;;
46675;SDS011;32412;51.478;5.694;2023-09-18T13:45:47;1.23;;;1.10;;
46675;SDS011;32412;51.478;5.694;2023-09-18T13:48:16;1.80;;;1.20;;
46675;SDS011;32412;51.478;5.694;2023-09-18T13:50:42;1.00;;;0.90;;
46675;SDS011;32412;51.478;5.694;2023-09-18T13:53:08;2.63;;;1.05;;
46675;SDS011;32412;51.478;5.694;2023-09-18T13:55:34;2.03;;;1.05;;
46675;SDS011;32412;51.478;5.694;2023-09-18T13:58:00;2.35;;;1.10;;
46675;SDS011;32412;51.478;5.694;2023-09-18T14:00:28;3.05;;;1.05;;
46675;SDS011;32412;51.478;5.694;2023-09-18T14:02:54;2.42;;;1.52;;
46675;SDS011;32412;51.478;5.694;2023-09-18T14:05:20;0.85;;;0.85;;
46675;SDS011;32412;51.478;5.694;2023-09-18T14:07:46;1.27;;;0.80;;
46675;SDS011;32412;51.478;5.694;2023-09-18T14:10:12;3.28;;;1.42;;
46675;SDS011;32412;51.478;5.694;2023-09-18T14:12:40;0.60;;;0.60;;
46675;SDS011;32412;51.478;5.694;2023-09-18T14:15:07;3.00;;;2.08;;
46675;SDS011;32412;51.478;5.694;2023-09-18T14:17:33;2.50;;;1.00;;
46675;SDS011;32412;51.478;5.694;2023-09-18T14:20:00;1.23;;;1.10;;
46675;SDS011;32412;51.478;5.694;2023-09-18T14:22:26;1.17;;;1.08;;
46675;SDS011;32412;51.478;5.694;2023-09-18T14:24:52;0.95;;;0.95;;
46675;SDS011;32412;51.478;5.694;2023-09-18T14:27:18;0.73;;;0.73;;
46675;SDS011;32412;51.478;5.694;2023-09-18T14:29:43;1.45;;;0.95;;
46675;SDS011;32412;51.478;5.694;2023-09-18T14:32:10;1.98;;;1.40;;
46675;SDS011;32412;51.478;5.694;2023-09-18T14:34:36;0.80;;;0.80;;
46675;SDS011;32412;51.478;5.694;2023-09-18T14:37:02;1.10;;;0.80;;
46675;SDS011;32412;51.478;5.694;2023-09-18T14:39:31;1.98;;;0.75;;
46675;SDS011;32412;51.478;5.694;2023-09-18T14:41:58;0.80;;;0.80;;
46675;SDS011;32412;51.478;5.694;2023-09-18T14:44:25;0.90;;;0.90;;
46675;SDS011;32412;51.478;5.694;2023-09-18T14:46:52;1.33;;;1.00;;
46675;SDS011;32412;51.478;5.694;2023-09-18T14:49:19;1.27;;;1.08;;
46675;SDS011;32412;51.478;5.694;2023-09-18T14:51:45;1.65;;;1.10;;
46675;SDS011;32412;51.478;5.694;2023-09-18T14:54:11;1.38;;;1.13;;
46675;SDS011;32412;51.478;5.694;2023-09-18T14:56:37;3.50;;;1.15;;
46675;SDS011;32412;51.478;5.694;2023-09-18T14:59:03;1.20;;;0.93;;
46675;SDS011;32412;51.478;5.694;2023-09-18T15:01:30;1.20;;;0.90;;
46675;SDS011;32412;51.478;5.694;2023-09-18T15:03:55;1.52;;;0.90;;
46675;SDS011;32412;51.478;5.694;2023-09-18T15:06:21;1.27;;;0.77;;
46675;SDS011;32412;51.478;5.694;2023-09-18T15:08:47;2.50;;;1.00;;
46675;SDS011;32412;51.478;5.694;2023-09-18T15:11:13;1.70;;;1.10;;
46675;SDS011;32412;51.478;5.694;2023-09-18T15:13:42;0.80;;;0.70;;
46675;SDS011;32412;51.478;5.694;2023-09-18T15:16:08;1.42;;;0.90;;
46675;SDS011;32412;51.478;5.694;2023-09-18T15:18:34;1.42;;;0.70;;
46675;SDS011;32412;51.478;5.694;2023-09-18T15:21:00;0.80;;;0.73;;
46675;SDS011;32412;51.478;5.694;2023-09-18T15:23:27;1.83;;;0.98;;
46675;SDS011;32412;51.478;5.694;2023-09-18T15:25:54;0.73;;;0.60;;
46675;SDS011;32412;51.478;5.694;2023-09-18T15:28:20;0.75;;;0.75;;
46675;SDS011;32412;51.478;5.694;2023-09-18T15:30:47;1.20;;;1.10;;
46675;SDS011;32412;51.478;5.694;2023-09-18T15:33:13;1.90;;;0.90;;
46675;SDS011;32412;51.478;5.694;2023-09-18T15:35:42;1.98;;;0.90;;
46675;SDS011;32412;51.478;5.694;2023-09-18T15:38:08;1.52;;;0.80;;
46675;SDS011;32412;51.478;5.694;2023-09-18T15:40:34;0.77;;;0.77;;
46675;SDS011;32412;51.478;5.694;2023-09-18T15:43:00;2.55;;;0.90;;
46675;SDS011;32412;51.478;5.694;2023-09-18T15:45:25;5.97;;;0.85;;
46675;SDS011;32412;51.478;5.694;2023-09-18T15:47:51;2.45;;;0.80;;
46675;SDS011;32412;51.478;5.694;2023-09-18T15:50:17;0.95;;;0.80;;
46675;SDS011;32412;51.478;5.694;2023-09-18T15:52:43;1.33;;;1.10;;
46675;SDS011;32412;51.478;5.694;2023-09-18T15:55:09;1.17;;;0.90;;
46675;SDS011;32412;51.478;5.694;2023-09-18T15:57:36;1.33;;;0.60;;
46675;SDS011;32412;51.478;5.694;2023-09-18T16:00:04;2.47;;;0.60;;
46675;SDS011;32412;51.478;5.694;2023-09-18T16:02:34;1.42;;;0.88;;
46675;SDS011;32412;51.478;5.694;2023-09-18T16:11:28;0.50;;;0.50;;
46675;SDS011;32412;51.478;5.694;2023-09-18T16:14:02;0.57;;;0.40;;
46675;SDS011;32412;51.478;5.694;2023-09-18T16:16:28;0.90;;;0.40;;
46675;SDS011;32412;51.478;5.694;2023-09-18T16:18:57;0.40;;;0.40;;